sensor_id;sensor_type;location;lat;lon;timestamp;P1;durP1;ratioP1;P2;durP2;ratioP2
10721;SDS011;5412;59.450;18.124;2023-09-19T00:00:20;7.85;;;3.80;;
10721;SDS011;5412;59.450;18.124;2023-09-19T00:02:53;9.63;;;3.88;;
10721;SDS011;5412;59.450;18.124;2023-09-19T00:05:25;7.55;;;3.67;;
10721;SDS011;5412;59.450;18.124;2023-09-19T00:07:53;8.38;;;4.40;;
10721;SDS011;5412;59.450;18.124;2023-09-19T00:23:48;7.90;;;4.35;;
10721;SDS011;5412;59.450;18.124;2023-09-19T00:26:16;6.32;;;3.85;;
10721;SDS011;5412;59.450;18.124;2023-09-19T00:28:43;11.05;;;4.53;;
10721;SDS011;5412;59.450;18.124;2023-09-19T00:31:09;8.77;;;4.50;;
10721;SDS011;5412;59.450;18.124;2023-09-19T00:33:35;8.02;;;4.22;;
10721;SDS011;5412;59.450;18.124;2023-09-19T00:36:01;8.32;;;4.43;;
10721;SDS011;5412;59.450;18.124;2023-09-19T00:38:30;8.02;;;5.07;;
10721;SDS011;5412;59.450;18.124;2023-09-19T00:40:57;8.98;;;5.00;;
10721;SDS011;5412;59.450;18.124;2023-09-19T00:43:22;11.30;;;4.93;;
10721;SDS011;5412;59.450;18.124;2023-09-19T00:45:50;9.60;;;5.20;;
10721;SDS011;5412;59.450;18.124;2023-09-19T00:48:18;7.15;;;4.95;;
10721;SDS011;5412;59.450;18.124;2023-09-19T00:50:45;6.30;;;4.78;;
10721;SDS011;5412;59.450;18.124;2023-09-19T00:53:13;9.77;;;4.97;;
10721;SDS011;5412;59.450;18.124;2023-09-19T00:55:40;11.48;;;5.50;;
10721;SDS011;5412;59.450;18.124;2023-09-19T00:58:07;8.93;;;5.30;;
10721;SDS011;5412;59.450;18.124;2023-09-19T01:00:35;7.70;;;5.85;;
10721;SDS011;5412;59.450;18.124;2023-09-19T01:03:01;9.20;;;6.05;;
10721;SDS011;5412;59.450;18.124;2023-09-19T01:05:27;10.15;;;5.30;;
10721;SDS011;5412;59.450;18.124;2023-09-19T01:07:53;8.65;;;5.32;;
10721;SDS011;5412;59.450;18.124;2023-09-19T01:10:19;10.80;;;5.45;;
10721;SDS011;5412;59.450;18.124;2023-09-19T01:21:18;17.00;;;6.50;;
10721;SDS011;5412;59.450;18.124;2023-09-19T01:29:39;9.25;;;6.00;;
10721;SDS011;5412;59.450;18.124;2023-09-19T01:32:09;12.52;;;6.15;;
10721;SDS011;5412;59.450;18.124;2023-09-19T01:34:45;11.60;;;6.18;;
10721;SDS011;5412;59.450;18.124;2023-09-19T01:37:12;8.63;;;6.10;;
10721;SDS011;5412;59.450;18.124;2023-09-19T01:39:39;9.93;;;5.90;;
10721;SDS011;5412;59.450;18.124;2023-09-19T01:42:10;8.57;;;6.47;;
10721;SDS011;5412;59.450;18.124;2023-09-19T01:45:11;8.80;;;5.70;;
10721;SDS011;5412;59.450;18.124;2023-09-19T01:47:52;14.25;;;6.90;;
10721;SDS011;5412;59.450;18.124;2023-09-19T01:53:05;16.42;;;6.30;;
10721;SDS011;5412;59.450;18.124;2023-09-19T01:55:40;11.40;;;5.95;;
10721;SDS011;5412;59.450;18.124;2023-09-19T01:58:37;12.13;;;6.15;;
10721;SDS011;5412;59.450;18.124;2023-09-19T02:01:11;7.63;;;5.97;;
10721;SDS011;5412;59.450;18.124;2023-09-19T02:03:41;13.48;;;6.55;;
10721;SDS011;5412;59.450;18.124;2023-09-19T02:06:13;16.17;;;6.80;;
10721;SDS011;5412;59.450;18.124;2023-09-19T02:08:40;15.30;;;7.70;;
10721;SDS011;5412;59.450;18.124;2023-09-19T02:11:06;13.98;;;6.78;;
10721;SDS011;5412;59.450;18.124;2023-09-19T02:13:32;9.45;;;6.70;;
10721;SDS011;5412;59.450;18.124;2023-09-19T02:15:58;13.32;;;6.90;;
10721;SDS011;5412;59.450;18.124;2023-09-19T02:18:24;16.63;;;7.07;;
10721;SDS011;5412;59.450;18.124;2023-09-19T02:20:52;9.90;;;6.72;;
10721;SDS011;5412;59.450;18.124;2023-09-19T02:23:19;11.90;;;6.80;;
10721;SDS011;5412;59.450;18.124;2023-09-19T02:25:54;13.18;;;6.93;;
10721;SDS011;5412;59.450;18.124;2023-09-19T02:28:20;12.25;;;6.63;;
10721;SDS011;5412;59.450;18.124;2023-09-19T02:30:47;12.50;;;7.00;;
10721;SDS011;5412;59.450;18.124;2023-09-19T02:33:16;14.05;;;6.72;;
10721;SDS011;5412;59.450;18.124;2023-09-19T02:35:42;12.18;;;7.25;;
10721;SDS011;5412;59.450;18.124;2023-09-19T02:38:08;11.85;;;7.53;;
10721;SDS011;5412;59.450;18.124;2023-09-19T02:40:36;10.02;;;7.13;;
10721;SDS011;5412;59.450;18.124;2023-09-19T02:43:02;16.17;;;7.35;;
10721;SDS011;5412;59.450;18.124;2023-09-19T02:45:28;12.38;;;7.55;;
10721;SDS011;5412;59.450;18.124;2023-09-19T02:47:55;12.52;;;7.40;;
10721;SDS011;5412;59.450;18.124;2023-09-19T02:50:21;10.80;;;7.80;;
10721;SDS011;5412;59.450;18.124;2023-09-19T02:52:47;10.68;;;7.57;;
10721;SDS011;5412;59.450;18.124;2023-09-19T02:55:16;13.32;;;7.68;;
10721;SDS011;5412;59.450;18.124;2023-09-19T02:57:51;11.25;;;7.40;;
10721;SDS011;5412;59.450;18.124;2023-09-19T03:00:20;12.95;;;7.75;;
10721;SDS011;5412;59.450;18.124;2023-09-19T03:02:50;14.95;;;8.40;;
10721;SDS011;5412;59.450;18.124;2023-09-19T03:05:18;9.55;;;7.57;;
10721;SDS011;5412;59.450;18.124;2023-09-19T03:07:44;14.55;;;7.72;;
10721;SDS011;5412;59.450;18.124;2023-09-19T03:10:12;14.57;;;7.68;;
10721;SDS011;5412;59.450;18.124;2023-09-19T03:12:40;14.88;;;8.20;;
10721;SDS011;5412;59.450;18.124;2023-09-19T03:15:06;10.85;;;8.43;;
10721;SDS011;5412;59.450;18.124;2023-09-19T03:17:33;15.45;;;9.05;;
10721;SDS011;5412;59.450;18.124;2023-09-19T03:19:59;15.20;;;9.07;;
10721;SDS011;5412;59.450;18.124;2023-09-19T03:22:26;19.58;;;8.73;;
10721;SDS011;5412;59.450;18.124;2023-09-19T03:24:52;17.50;;;9.98;;
10721;SDS011;5412;59.450;18.124;2023-09-19T03:27:18;11.13;;;8.40;;
10721;SDS011;5412;59.450;18.124;2023-09-19T03:29:45;16.33;;;9.35;;
10721;SDS011;5412;59.450;18.124;2023-09-19T03:32:14;15.35;;;9.40;;
10721;SDS011;5412;59.450;18.124;2023-09-19T03:34:40;14.07;;;9.70;;
10721;SDS011;5412;59.450;18.124;2023-09-19T03:37:08;15.65;;;9.68;;
10721;SDS011;5412;59.450;18.124;2023-09-19T03:39:34;18.38;;;9.18;;
10721;SDS011;5412;59.450;18.124;2023-09-19T03:42:01;12.52;;;8.80;;
10721;SDS011;5412;59.450;18.124;2023-09-19T03:44:32;14.98;;;9.57;;
10721;SDS011;5412;59.450;18.124;2023-09-19T03:46:57;18.80;;;10.02;;
10721;SDS011;5412;59.450;18.124;2023-09-19T03:49:23;13.73;;;9.95;;
10721;SDS011;5412;59.450;18.124;2023-09-19T03:51:49;16.13;;;10.60;;
10721;SDS011;5412;59.450;18.124;2023-09-19T03:54:15;18.70;;;10.98;;
10721;SDS011;5412;59.450;18.124;2023-09-19T03:56:42;14.63;;;9.98;;
10721;SDS011;5412;59.450;18.124;2023-09-19T03:59:08;19.90;;;10.70;;
10721;SDS011;5412;59.450;18.124;2023-09-19T04:01:34;18.75;;;11.27;;
10721;SDS011;5412;59.450;18.124;2023-09-19T04:04:00;16.25;;;10.80;;
10721;SDS011;5412;59.450;18.124;2023-09-19T04:06:33;20.73;;;11.48;;
10721;SDS011;5412;59.450;18.124;2023-09-19T04:09:03;14.50;;;10.57;;
10721;SDS011;5412;59.450;18.124;2023-09-19T04:11:29;20.05;;;12.02;;
10721;SDS011;5412;59.450;18.124;2023-09-19T04:13:56;21.95;;;11.15;;
10721;SDS011;5412;59.450;18.124;2023-09-19T04:16:22;18.23;;;11.23;;
10721;SDS011;5412;59.450;18.124;2023-09-19T04:18:48;16.25;;;11.38;;
10721;SDS011;5412;59.450;18.124;2023-09-19T04:21:13;16.60;;;11.85;;
10721;SDS011;5412;59.450;18.124;2023-09-19T04:23:39;17.92;;;11.43;;
10721;SDS011;5412;59.450;18.124;2023-09-19T04:26:05;16.88;;;11.85;;
10721;SDS011;5412;59.450;18.124;2023-09-19T04:28:31;20.10;;;11.30;;
10721;SDS011;5412;59.450;18.124;2023-09-19T04:30:59;18.35;;;11.23;;
10721;SDS011;5412;59.450;18.124;2023-09-19T04:33:25;15.82;;;11.60;;
10721;SDS011;5412;59.450;18.124;2023-09-19T04:35:54;18.75;;;12.05;;
10721;SDS011;5412;59.450;18.124;2023-09-19T04:38:21;16.58;;;11.35;;
10721;SDS011;5412;59.450;18.124;2023-09-19T04:40:47;15.25;;;11.75;;
10721;SDS011;5412;59.450;18.124;2023-09-19T04:43:12;16.48;;;12.10;;
10721;SDS011;5412;59.450;18.124;2023-09-19T04:45:39;17.55;;;12.20;;
10721;SDS011;5412;59.450;18.124;2023-09-19T04:48:07;19.50;;;12.10;;
10721;SDS011;5412;59.450;18.124;2023-09-19T04:50:37;20.20;;;12.02;;
10721;SDS011;5412;59.450;18.124;2023-09-19T04:53:03;14.63;;;11.23;;
10721;SDS011;5412;59.450;18.124;2023-09-19T04:55:29;16.52;;;11.27;;
10721;SDS011;5412;59.450;18.124;2023-09-19T04:57:55;21.58;;;12.25;;
10721;SDS011;5412;59.450;18.124;2023-09-19T05:00:21;21.33;;;12.27;;
10721;SDS011;5412;59.450;18.124;2023-09-19T05:02:54;18.63;;;12.35;;
10721;SDS011;5412;59.450;18.124;2023-09-19T05:05:24;15.93;;;11.68;;
10721;SDS011;5412;59.450;18.124;2023-09-19T05:07:51;21.77;;;12.50;;
10721;SDS011;5412;59.450;18.124;2023-09-19T05:10:18;19.83;;;12.43;;
10721;SDS011;5412;59.450;18.124;2023-09-19T05:12:44;15.93;;;11.95;;
10721;SDS011;5412;59.450;18.124;2023-09-19T05:15:12;17.42;;;12.73;;
10721;SDS011;5412;59.450;18.124;2023-09-19T05:17:51;17.58;;;12.38;;
10721;SDS011;5412;59.450;18.124;2023-09-19T05:20:20;16.52;;;11.77;;
10721;SDS011;5412;59.450;18.124;2023-09-19T05:22:57;18.38;;;12.98;;
10721;SDS011;5412;59.450;18.124;2023-09-19T05:25:36;17.67;;;12.02;;
10721;SDS011;5412;59.450;18.124;2023-09-19T05:28:04;18.23;;;12.80;;
10721;SDS011;5412;59.450;18.124;2023-09-19T05:30:31;16.52;;;12.25;;
10721;SDS011;5412;59.450;18.124;2023-09-19T05:32:57;21.88;;;12.07;;
10721;SDS011;5412;59.450;18.124;2023-09-19T05:35:24;14.23;;;11.98;;
10721;SDS011;5412;59.450;18.124;2023-09-19T05:37:50;16.20;;;10.90;;
10721;SDS011;5412;59.450;18.124;2023-09-19T05:40:19;16.13;;;12.00;;
10721;SDS011;5412;59.450;18.124;2023-09-19T05:42:45;15.85;;;11.98;;
10721;SDS011;5412;59.450;18.124;2023-09-19T05:45:12;16.17;;;11.35;;
10721;SDS011;5412;59.450;18.124;2023-09-19T05:47:39;17.27;;;11.95;;
10721;SDS011;5412;59.450;18.124;2023-09-19T05:50:06;17.23;;;12.68;;
10721;SDS011;5412;59.450;18.124;2023-09-19T05:52:34;13.95;;;11.68;;
10721;SDS011;5412;59.450;18.124;2023-09-19T05:55:05;17.88;;;12.30;;
10721;SDS011;5412;59.450;18.124;2023-09-19T05:57:35;18.33;;;12.65;;
10721;SDS011;5412;59.450;18.124;2023-09-19T06:00:02;19.83;;;11.95;;
10721;SDS011;5412;59.450;18.124;2023-09-19T06:02:34;16.17;;;11.57;;
10721;SDS011;5412;59.450;18.124;2023-09-19T06:05:00;17.35;;;11.43;;
10721;SDS011;5412;59.450;18.124;2023-09-19T06:07:26;16.20;;;11.63;;
10721;SDS011;5412;59.450;18.124;2023-09-19T06:10:01;23.67;;;12.05;;
10721;SDS011;5412;59.450;18.124;2023-09-19T06:12:33;19.52;;;11.18;;
10721;SDS011;5412;59.450;18.124;2023-09-19T06:15:05;14.68;;;10.68;;
10721;SDS011;5412;59.450;18.124;2023-09-19T06:17:34;15.80;;;10.95;;
10721;SDS011;5412;59.450;18.124;2023-09-19T06:20:04;16.98;;;12.15;;
10721;SDS011;5412;59.450;18.124;2023-09-19T06:22:37;16.65;;;11.45;;
10721;SDS011;5412;59.450;18.124;2023-09-19T06:25:03;15.63;;;10.40;;
10721;SDS011;5412;59.450;18.124;2023-09-19T06:27:29;15.77;;;12.18;;
10721;SDS011;5412;59.450;18.124;2023-09-19T06:29:55;15.85;;;11.48;;
10721;SDS011;5412;59.450;18.124;2023-09-19T06:32:26;17.58;;;12.50;;
10721;SDS011;5412;59.450;18.124;2023-09-19T06:34:52;18.42;;;11.60;;
10721;SDS011;5412;59.450;18.124;2023-09-19T06:37:23;19.20;;;12.80;;
10721;SDS011;5412;59.450;18.124;2023-09-19T06:39:52;16.45;;;11.77;;
10721;SDS011;5412;59.450;18.124;2023-09-19T06:42:18;16.65;;;12.02;;
10721;SDS011;5412;59.450;18.124;2023-09-19T06:44:44;14.95;;;11.13;;
10721;SDS011;5412;59.450;18.124;2023-09-19T06:47:10;15.52;;;11.50;;
10721;SDS011;5412;59.450;18.124;2023-09-19T06:49:36;16.65;;;12.55;;
10721;SDS011;5412;59.450;18.124;2023-09-19T06:52:02;15.52;;;13.18;;
10721;SDS011;5412;59.450;18.124;2023-09-19T06:54:28;19.33;;;12.75;;
10721;SDS011;5412;59.450;18.124;2023-09-19T06:56:59;16.38;;;12.23;;
10721;SDS011;5412;59.450;18.124;2023-09-19T06:59:25;15.30;;;12.43;;
10721;SDS011;5412;59.450;18.124;2023-09-19T07:01:50;17.40;;;12.38;;
10721;SDS011;5412;59.450;18.124;2023-09-19T07:04:17;15.15;;;12.77;;
10721;SDS011;5412;59.450;18.124;2023-09-19T07:06:44;18.27;;;12.45;;
10721;SDS011;5412;59.450;18.124;2023-09-19T07:09:16;16.85;;;13.13;;
10721;SDS011;5412;59.450;18.124;2023-09-19T07:11:44;15.27;;;12.75;;
10721;SDS011;5412;59.450;18.124;2023-09-19T07:14:10;16.15;;;12.43;;
10721;SDS011;5412;59.450;18.124;2023-09-19T07:16:38;16.20;;;14.18;;
10721;SDS011;5412;59.450;18.124;2023-09-19T07:19:07;17.92;;;14.10;;
10721;SDS011;5412;59.450;18.124;2023-09-19T07:21:33;15.35;;;13.10;;
10721;SDS011;5412;59.450;18.124;2023-09-19T07:24:00;19.27;;;13.20;;
10721;SDS011;5412;59.450;18.124;2023-09-19T07:26:28;18.67;;;12.90;;
10721;SDS011;5412;59.450;18.124;2023-09-19T07:28:54;17.95;;;12.85;;
10721;SDS011;5412;59.450;18.124;2023-09-19T07:31:21;19.25;;;13.48;;
10721;SDS011;5412;59.450;18.124;2023-09-19T07:33:47;16.42;;;12.25;;
10721;SDS011;5412;59.450;18.124;2023-09-19T07:36:13;19.27;;;13.77;;
10721;SDS011;5412;59.450;18.124;2023-09-19T07:38:40;16.02;;;12.45;;
10721;SDS011;5412;59.450;18.124;2023-09-19T07:41:06;19.33;;;11.77;;
10721;SDS011;5412;59.450;18.124;2023-09-19T07:43:34;11.48;;;10.10;;
10721;SDS011;5412;59.450;18.124;2023-09-19T07:46:04;12.00;;;9.55;;
10721;SDS011;5412;59.450;18.124;2023-09-19T07:48:32;11.52;;;10.20;;
10721;SDS011;5412;59.450;18.124;2023-09-19T07:51:05;12.30;;;9.98;;
10721;SDS011;5412;59.450;18.124;2023-09-19T07:53:35;12.48;;;10.27;;
10721;SDS011;5412;59.450;18.124;2023-09-19T07:56:08;12.30;;;10.52;;
10721;SDS011;5412;59.450;18.124;2023-09-19T07:58:35;12.25;;;10.98;;
10721;SDS011;5412;59.450;18.124;2023-09-19T08:01:04;14.13;;;10.13;;
10721;SDS011;5412;59.450;18.124;2023-09-19T08:03:35;11.60;;;10.40;;
10721;SDS011;5412;59.450;18.124;2023-09-19T08:06:06;15.02;;;10.60;;
10721;SDS011;5412;59.450;18.124;2023-09-19T08:08:33;16.77;;;10.77;;
10721;SDS011;5412;59.450;18.124;2023-09-19T08:11:05;11.82;;;10.63;;
10721;SDS011;5412;59.450;18.124;2023-09-19T08:13:41;15.43;;;11.10;;
10721;SDS011;5412;59.450;18.124;2023-09-19T08:16:10;15.32;;;11.68;;
10721;SDS011;5412;59.450;18.124;2023-09-19T08:18:36;15.32;;;10.68;;
10721;SDS011;5412;59.450;18.124;2023-09-19T08:21:05;12.30;;;11.00;;
10721;SDS011;5412;59.450;18.124;2023-09-19T08:23:33;16.52;;;11.38;;
10721;SDS011;5412;59.450;18.124;2023-09-19T08:25:58;12.00;;;10.23;;
10721;SDS011;5412;59.450;18.124;2023-09-19T08:28:28;16.63;;;11.68;;
10721;SDS011;5412;59.450;18.124;2023-09-19T08:30:54;12.82;;;10.70;;
10721;SDS011;5412;59.450;18.124;2023-09-19T08:33:20;14.15;;;11.32;;
10721;SDS011;5412;59.450;18.124;2023-09-19T08:35:46;17.77;;;11.57;;
10721;SDS011;5412;59.450;18.124;2023-09-19T08:38:12;16.25;;;11.75;;
10721;SDS011;5412;59.450;18.124;2023-09-19T08:40:39;17.30;;;12.60;;
10721;SDS011;5412;59.450;18.124;2023-09-19T08:43:07;17.50;;;11.52;;
10721;SDS011;5412;59.450;18.124;2023-09-19T08:45:33;16.13;;;12.27;;
10721;SDS011;5412;59.450;18.124;2023-09-19T08:50:31;15.20;;;13.00;;
10721;SDS011;5412;59.450;18.124;2023-09-19T08:53:01;16.17;;;11.68;;
10721;SDS011;5412;59.450;18.124;2023-09-19T08:55:36;17.73;;;12.60;;
10721;SDS011;5412;59.450;18.124;2023-09-19T08:58:06;18.23;;;12.25;;
10721;SDS011;5412;59.450;18.124;2023-09-19T09:00:35;15.52;;;12.65;;
10721;SDS011;5412;59.450;18.124;2023-09-19T09:03:02;15.10;;;12.13;;
10721;SDS011;5412;59.450;18.124;2023-09-19T09:05:31;18.38;;;12.45;;
10721;SDS011;5412;59.450;18.124;2023-09-19T09:07:58;15.80;;;11.15;;
10721;SDS011;5412;59.450;18.124;2023-09-19T09:10:24;13.25;;;11.18;;
10721;SDS011;5412;59.450;18.124;2023-09-19T09:12:52;18.77;;;11.65;;
10721;SDS011;5412;59.450;18.124;2023-09-19T09:15:21;14.35;;;11.45;;
10721;SDS011;5412;59.450;18.124;2023-09-19T09:17:48;12.82;;;10.68;;
10721;SDS011;5412;59.450;18.124;2023-09-19T09:20:20;14.18;;;11.05;;
10721;SDS011;5412;59.450;18.124;2023-09-19T09:23:05;14.57;;;10.88;;
10721;SDS011;5412;59.450;18.124;2023-09-19T09:25:46;14.05;;;10.32;;
10721;SDS011;5412;59.450;18.124;2023-09-19T09:28:23;16.85;;;10.43;;
10721;SDS011;5412;59.450;18.124;2023-09-19T09:30:51;15.77;;;10.73;;
10721;SDS011;5412;59.450;18.124;2023-09-19T09:33:17;11.13;;;9.05;;
10721;SDS011;5412;59.450;18.124;2023-09-19T09:36:02;14.77;;;9.52;;
10721;SDS011;5412;59.450;18.124;2023-09-19T09:38:30;18.60;;;9.27;;
10721;SDS011;5412;59.450;18.124;2023-09-19T09:41:09;13.43;;;8.77;;
10721;SDS011;5412;59.450;18.124;2023-09-19T09:43:37;10.23;;;8.20;;
10721;SDS011;5412;59.450;18.124;2023-09-19T09:46:09;13.13;;;8.02;;
10721;SDS011;5412;59.450;18.124;2023-09-19T09:51:39;10.75;;;7.13;;
10721;SDS011;5412;59.450;18.124;2023-09-19T09:54:16;10.80;;;7.05;;
10721;SDS011;5412;59.450;18.124;2023-09-19T09:56:56;7.80;;;6.47;;
10721;SDS011;5412;59.450;18.124;2023-09-19T10:02:20;7.25;;;5.90;;
10721;SDS011;5412;59.450;18.124;2023-09-19T10:04:53;6.78;;;5.30;;
10721;SDS011;5412;59.450;18.124;2023-09-19T10:07:28;5.70;;;5.10;;
10721;SDS011;5412;59.450;18.124;2023-09-19T10:10:04;6.53;;;4.72;;
10721;SDS011;5412;59.450;18.124;2023-09-19T10:12:49;7.43;;;4.57;;
10721;SDS011;5412;59.450;18.124;2023-09-19T10:15:18;8.30;;;5.03;;
10721;SDS011;5412;59.450;18.124;2023-09-19T10:17:47;9.88;;;4.97;;
10721;SDS011;5412;59.450;18.124;2023-09-19T10:20:13;6.05;;;5.07;;
10721;SDS011;5412;59.450;18.124;2023-09-19T10:23:00;6.55;;;4.72;;
10721;SDS011;5412;59.450;18.124;2023-09-19T10:25:29;9.57;;;4.43;;
10721;SDS011;5412;59.450;18.124;2023-09-19T10:27:56;6.25;;;4.40;;
10721;SDS011;5412;59.450;18.124;2023-09-19T10:30:27;6.45;;;4.78;;
10721;SDS011;5412;59.450;18.124;2023-09-19T10:33:03;6.72;;;4.57;;
10721;SDS011;5412;59.450;18.124;2023-09-19T10:35:30;4.95;;;4.10;;
10721;SDS011;5412;59.450;18.124;2023-09-19T10:38:00;9.10;;;4.30;;
10721;SDS011;5412;59.450;18.124;2023-09-19T10:40:27;8.63;;;4.85;;
10721;SDS011;5412;59.450;18.124;2023-09-19T10:43:00;7.03;;;4.72;;
10721;SDS011;5412;59.450;18.124;2023-09-19T10:45:31;7.55;;;4.70;;
10721;SDS011;5412;59.450;18.124;2023-09-19T10:48:01;9.88;;;5.20;;
10721;SDS011;5412;59.450;18.124;2023-09-19T10:50:29;6.05;;;4.43;;
10721;SDS011;5412;59.450;18.124;2023-09-19T10:53:17;8.38;;;4.32;;
10721;SDS011;5412;59.450;18.124;2023-09-19T10:55:48;9.43;;;4.35;;
10721;SDS011;5412;59.450;18.124;2023-09-19T10:58:37;7.78;;;4.60;;
10721;SDS011;5412;59.450;18.124;2023-09-19T11:01:04;6.40;;;4.43;;
10721;SDS011;5412;59.450;18.124;2023-09-19T11:03:33;9.73;;;4.20;;
10721;SDS011;5412;59.450;18.124;2023-09-19T11:06:20;4.80;;;3.80;;
10721;SDS011;5412;59.450;18.124;2023-09-19T11:11:39;5.80;;;3.78;;
10721;SDS011;5412;59.450;18.124;2023-09-19T11:30:50;4.40;;;3.70;;
10721;SDS011;5412;59.450;18.124;2023-09-19T11:33:30;5.10;;;3.58;;
10721;SDS011;5412;59.450;18.124;2023-09-19T11:49:17;2.90;;;2.47;;
10721;SDS011;5412;59.450;18.124;2023-09-19T11:51:50;4.43;;;2.22;;
10721;SDS011;5412;59.450;18.124;2023-09-19T11:54:19;7.72;;;2.40;;
10721;SDS011;5412;59.450;18.124;2023-09-19T11:56:49;4.00;;;2.25;;
10721;SDS011;5412;59.450;18.124;2023-09-19T11:59:52;2.90;;;2.10;;
10721;SDS011;5412;59.450;18.124;2023-09-19T12:02:13;2.88;;;2.10;;
10721;SDS011;5412;59.450;18.124;2023-09-19T12:04:53;2.45;;;1.60;;
10721;SDS011;5412;59.450;18.124;2023-09-19T12:07:20;2.17;;;1.98;;
10721;SDS011;5412;59.450;18.124;2023-09-19T12:09:50;1.60;;;1.40;;
10721;SDS011;5412;59.450;18.124;2023-09-19T12:12:31;2.38;;;1.50;;
10721;SDS011;5412;59.450;18.124;2023-09-19T12:14:58;2.83;;;1.52;;
10721;SDS011;5412;59.450;18.124;2023-09-19T12:17:34;3.13;;;1.58;;
10721;SDS011;5412;59.450;18.124;2023-09-19T12:20:04;3.95;;;1.58;;
10721;SDS011;5412;59.450;18.124;2023-09-19T12:22:43;2.85;;;1.20;;
10721;SDS011;5412;59.450;18.124;2023-09-19T12:25:10;1.83;;;1.20;;
10721;SDS011;5412;59.450;18.124;2023-09-19T12:27:49;2.03;;;1.42;;
10721;SDS011;5412;59.450;18.124;2023-09-19T12:30:18;4.03;;;1.00;;
10721;SDS011;5412;59.450;18.124;2023-09-19T12:32:47;2.30;;;1.20;;
10721;SDS011;5412;59.450;18.124;2023-09-19T12:35:27;2.95;;;1.45;;
10721;SDS011;5412;59.450;18.124;2023-09-19T12:37:55;3.05;;;1.02;;
10721;SDS011;5412;59.450;18.124;2023-09-19T12:40:21;1.52;;;1.17;;
10721;SDS011;5412;59.450;18.124;2023-09-19T12:42:52;2.17;;;1.23;;
10721;SDS011;5412;59.450;18.124;2023-09-19T12:45:23;3.92;;;1.48;;
10721;SDS011;5412;59.450;18.124;2023-09-19T12:53:37;2.60;;;1.83;;
10721;SDS011;5412;59.450;18.124;2023-09-19T12:56:16;5.53;;;1.63;;
10721;SDS011;5412;59.450;18.124;2023-09-19T12:58:49;3.90;;;1.50;;
10721;SDS011;5412;59.450;18.124;2023-09-19T13:01:24;4.63;;;1.40;;
10721;SDS011;5412;59.450;18.124;2023-09-19T13:04:13;2.08;;;1.17;;
10721;SDS011;5412;59.450;18.124;2023-09-19T13:06:43;4.00;;;1.45;;
10721;SDS011;5412;59.450;18.124;2023-09-19T13:09:09;1.52;;;1.15;;
10721;SDS011;5412;59.450;18.124;2023-09-19T13:11:37;3.33;;;1.35;;
10721;SDS011;5412;59.450;18.124;2023-09-19T13:14:21;4.45;;;1.92;;
10721;SDS011;5412;59.450;18.124;2023-09-19T13:17:07;4.03;;;1.58;;
10721;SDS011;5412;59.450;18.124;2023-09-19T13:19:41;1.55;;;1.10;;
10721;SDS011;5412;59.450;18.124;2023-09-19T13:25:01;1.75;;;1.30;;
10721;SDS011;5412;59.450;18.124;2023-09-19T13:27:29;2.75;;;1.60;;
10721;SDS011;5412;59.450;18.124;2023-09-19T13:29:55;2.00;;;1.40;;
10721;SDS011;5412;59.450;18.124;2023-09-19T13:32:21;3.03;;;1.58;;
10721;SDS011;5412;59.450;18.124;2023-09-19T13:34:47;4.63;;;1.73;;
10721;SDS011;5412;59.450;18.124;2023-09-19T13:37:13;4.15;;;1.75;;
10721;SDS011;5412;59.450;18.124;2023-09-19T13:39:41;3.53;;;1.58;;
10721;SDS011;5412;59.450;18.124;2023-09-19T13:42:12;4.75;;;1.80;;
10721;SDS011;5412;59.450;18.124;2023-09-19T13:44:38;2.30;;;1.40;;
10721;SDS011;5412;59.450;18.124;2023-09-19T13:47:06;4.80;;;1.83;;
10721;SDS011;5412;59.450;18.124;2023-09-19T13:49:35;2.67;;;1.35;;
10721;SDS011;5412;59.450;18.124;2023-09-19T13:52:03;2.10;;;1.38;;
10721;SDS011;5412;59.450;18.124;2023-09-19T13:54:30;4.32;;;1.80;;
10721;SDS011;5412;59.450;18.124;2023-09-19T13:56:56;3.08;;;1.40;;
10721;SDS011;5412;59.450;18.124;2023-09-19T13:59:22;2.10;;;1.50;;
10721;SDS011;5412;59.450;18.124;2023-09-19T14:01:51;3.53;;;1.48;;
10721;SDS011;5412;59.450;18.124;2023-09-19T14:04:19;3.88;;;1.70;;
10721;SDS011;5412;59.450;18.124;2023-09-19T14:06:46;3.72;;;2.05;;
10721;SDS011;5412;59.450;18.124;2023-09-19T14:09:11;5.60;;;1.98;;
10721;SDS011;5412;59.450;18.124;2023-09-19T14:11:38;2.90;;;1.48;;
10721;SDS011;5412;59.450;18.124;2023-09-19T14:14:04;2.85;;;1.25;;
10721;SDS011;5412;59.450;18.124;2023-09-19T14:16:31;2.78;;;1.38;;
10721;SDS011;5412;59.450;18.124;2023-09-19T14:18:58;1.73;;;0.98;;
10721;SDS011;5412;59.450;18.124;2023-09-19T14:21:24;2.47;;;1.50;;
10721;SDS011;5412;59.450;18.124;2023-09-19T14:23:50;4.20;;;1.23;;
10721;SDS011;5412;59.450;18.124;2023-09-19T14:26:16;2.70;;;1.40;;
10721;SDS011;5412;59.450;18.124;2023-09-19T14:28:43;2.53;;;1.17;;
10721;SDS011;5412;59.450;18.124;2023-09-19T14:31:10;4.03;;;1.40;;
10721;SDS011;5412;59.450;18.124;2023-09-19T14:33:37;1.25;;;1.05;;
10721;SDS011;5412;59.450;18.124;2023-09-19T14:36:03;4.03;;;1.17;;
10721;SDS011;5412;59.450;18.124;2023-09-19T14:38:32;2.78;;;1.38;;
10721;SDS011;5412;59.450;18.124;2023-09-19T14:40:59;3.80;;;1.35;;
10721;SDS011;5412;59.450;18.124;2023-09-19T14:43:28;4.10;;;1.30;;
10721;SDS011;5412;59.450;18.124;2023-09-19T14:45:56;3.30;;;1.33;;
10721;SDS011;5412;59.450;18.124;2023-09-19T14:48:22;3.20;;;1.33;;
10721;SDS011;5412;59.450;18.124;2023-09-19T14:50:52;2.35;;;1.45;;
10721;SDS011;5412;59.450;18.124;2023-09-19T14:53:18;2.60;;;1.23;;
10721;SDS011;5412;59.450;18.124;2023-09-19T14:55:44;2.20;;;1.13;;
10721;SDS011;5412;59.450;18.124;2023-09-19T14:58:12;5.63;;;1.50;;
10721;SDS011;5412;59.450;18.124;2023-09-19T15:00:38;2.05;;;1.30;;
10721;SDS011;5412;59.450;18.124;2023-09-19T15:03:04;2.60;;;1.42;;
10721;SDS011;5412;59.450;18.124;2023-09-19T15:05:30;2.72;;;1.30;;
10721;SDS011;5412;59.450;18.124;2023-09-19T15:07:56;5.60;;;1.65;;
10721;SDS011;5412;59.450;18.124;2023-09-19T15:10:23;3.15;;;1.25;;
10721;SDS011;5412;59.450;18.124;2023-09-19T15:12:49;3.83;;;1.50;;
10721;SDS011;5412;59.450;18.124;2023-09-19T15:15:15;6.25;;;1.33;;
10721;SDS011;5412;59.450;18.124;2023-09-19T15:17:41;3.60;;;1.30;;
10721;SDS011;5412;59.450;18.124;2023-09-19T15:20:07;3.05;;;1.30;;
10721;SDS011;5412;59.450;18.124;2023-09-19T15:22:33;4.10;;;1.48;;
10721;SDS011;5412;59.450;18.124;2023-09-19T15:25:03;5.38;;;2.65;;
10721;SDS011;5412;59.450;18.124;2023-09-19T15:27:29;3.75;;;1.63;;
10721;SDS011;5412;59.450;18.124;2023-09-19T15:29:56;5.57;;;1.98;;
10721;SDS011;5412;59.450;18.124;2023-09-19T15:32:23;3.78;;;2.28;;
10721;SDS011;5412;59.450;18.124;2023-09-19T15:34:49;1.50;;;0.90;;
10721;SDS011;5412;59.450;18.124;2023-09-19T15:37:15;1.20;;;0.77;;
10721;SDS011;5412;59.450;18.124;2023-09-19T15:39:41;1.15;;;0.73;;
10721;SDS011;5412;59.450;18.124;2023-09-19T15:42:08;2.08;;;0.75;;
10721;SDS011;5412;59.450;18.124;2023-09-19T15:44:34;2.28;;;0.80;;
10721;SDS011;5412;59.450;18.124;2023-09-19T15:46:59;2.13;;;1.00;;
10721;SDS011;5412;59.450;18.124;2023-09-19T15:49:25;3.00;;;0.90;;
10721;SDS011;5412;59.450;18.124;2023-09-19T15:51:51;1.33;;;0.60;;
10721;SDS011;5412;59.450;18.124;2023-09-19T15:54:17;1.17;;;0.80;;
10721;SDS011;5412;59.450;18.124;2023-09-19T15:56:43;1.55;;;0.70;;
10721;SDS011;5412;59.450;18.124;2023-09-19T15:59:10;2.33;;;1.35;;
10721;SDS011;5412;59.450;18.124;2023-09-19T16:01:37;1.52;;;1.10;;
10721;SDS011;5412;59.450;18.124;2023-09-19T16:04:05;1.73;;;0.88;;
10721;SDS011;5412;59.450;18.124;2023-09-19T16:06:34;2.10;;;0.80;;